sensor_id;sensor_type;location;lat;lon;timestamp;P1;durP1;ratioP1;P2;durP2;ratioP2
23567;SDS011;11962;50.838;4.430;2022-11-15T00:01:08;20.88;;;14.15;;
23567;SDS011;11962;50.838;4.430;2022-11-15T00:03:38;23.77;;;14.85;;
23567;SDS011;11962;50.838;4.430;2022-11-15T00:06:04;23.10;;;15.43;;
23567;SDS011;11962;50.838;4.430;2022-11-15T00:08:30;21.80;;;14.82;;
23567;SDS011;11962;50.838;4.430;2022-11-15T00:10:58;26.95;;;15.60;;
23567;SDS011;11962;50.838;4.430;2022-11-15T00:13:25;23.52;;;15.75;;
23567;SDS011;11962;50.838;4.430;2022-11-15T00:15:51;23.00;;;15.13;;
23567;SDS011;11962;50.838;4.430;2022-11-15T00:18:18;22.23;;;15.20;;
23567;SDS011;11962;50.838;4.430;2022-11-15T00:20:43;24.05;;;16.17;;
23567;SDS011;11962;50.838;4.430;2022-11-15T00:23:09;24.10;;;16.38;;
23567;SDS011;11962;50.838;4.430;2022-11-15T00:25:35;23.98;;;15.65;;
23567;SDS011;11962;50.838;4.430;2022-11-15T00:28:01;22.88;;;16.00;;
23567;SDS011;11962;50.838;4.430;2022-11-15T00:30:27;25.33;;;17.27;;
23567;SDS011;11962;50.838;4.430;2022-11-15T00:32:53;27.45;;;17.25;;
23567;SDS011;11962;50.838;4.430;2022-11-15T00:35:19;22.65;;;16.15;;
23567;SDS011;11962;50.838;4.430;2022-11-15T00:37:46;29.70;;;17.35;;
23567;SDS011;11962;50.838;4.430;2022-11-15T00:40:12;25.85;;;16.88;;
23567;SDS011;11962;50.838;4.430;2022-11-15T00:42:39;26.73;;;16.63;;
23567;SDS011;11962;50.838;4.430;2022-11-15T00:45:05;28.00;;;16.90;;
23567;SDS011;11962;50.838;4.430;2022-11-15T00:47:31;23.80;;;16.48;;
23567;SDS011;11962;50.838;4.430;2022-11-15T00:49:57;25.95;;;16.60;;
23567;SDS011;11962;50.838;4.430;2022-11-15T00:52:23;27.38;;;17.30;;
23567;SDS011;11962;50.838;4.430;2022-11-15T00:54:49;27.88;;;17.42;;
23567;SDS011;11962;50.838;4.430;2022-11-15T00:57:15;31.48;;;17.58;;
23567;SDS011;11962;50.838;4.430;2022-11-15T00:59:40;27.02;;;17.20;;
23567;SDS011;11962;50.838;4.430;2022-11-15T01:02:06;29.85;;;17.92;;
23567;SDS011;11962;50.838;4.430;2022-11-15T01:04:31;29.15;;;18.17;;
23567;SDS011;11962;50.838;4.430;2022-11-15T01:06:57;26.02;;;18.45;;
23567;SDS011;11962;50.838;4.430;2022-11-15T01:09:23;30.02;;;18.92;;
23567;SDS011;11962;50.838;4.430;2022-11-15T01:11:48;30.17;;;20.35;;
23567;SDS011;11962;50.838;4.430;2022-11-15T01:14:14;33.20;;;21.00;;
23567;SDS011;11962;50.838;4.430;2022-11-15T01:16:40;33.38;;;19.50;;
23567;SDS011;11962;50.838;4.430;2022-11-15T01:19:06;34.22;;;20.20;;
23567;SDS011;11962;50.838;4.430;2022-11-15T01:21:31;34.90;;;20.45;;
23567;SDS011;11962;50.838;4.430;2022-11-15T01:23:57;35.13;;;19.65;;
23567;SDS011;11962;50.838;4.430;2022-11-15T01:26:23;31.52;;;20.13;;
23567;SDS011;11962;50.838;4.430;2022-11-15T01:28:49;34.63;;;20.40;;
23567;SDS011;11962;50.838;4.430;2022-11-15T01:31:16;34.33;;;18.92;;
23567;SDS011;11962;50.838;4.430;2022-11-15T01:33:44;32.35;;;19.35;;
23567;SDS011;11962;50.838;4.430;2022-11-15T01:36:12;30.25;;;20.33;;
23567;SDS011;11962;50.838;4.430;2022-11-15T01:38:41;26.95;;;18.85;;
23567;SDS011;11962;50.838;4.430;2022-11-15T01:41:18;33.95;;;18.15;;
23567;SDS011;11962;50.838;4.430;2022-11-15T01:43:47;27.13;;;17.73;;
23567;SDS011;11962;50.838;4.430;2022-11-15T01:46:30;24.75;;;16.75;;
23567;SDS011;11962;50.838;4.430;2022-11-15T01:49:00;25.23;;;15.73;;
23567;SDS011;11962;50.838;4.430;2022-11-15T01:51:31;24.05;;;15.45;;
23567;SDS011;11962;50.838;4.430;2022-11-15T01:54:00;25.42;;;15.95;;
23567;SDS011;11962;50.838;4.430;2022-11-15T01:56:30;23.23;;;14.88;;
23567;SDS011;11962;50.838;4.430;2022-11-15T01:58:58;21.08;;;14.52;;
23567;SDS011;11962;50.838;4.430;2022-11-15T02:01:27;21.60;;;13.77;;
23567;SDS011;11962;50.838;4.430;2022-11-15T02:03:56;18.40;;;13.47;;
23567;SDS011;11962;50.838;4.430;2022-11-15T02:06:31;26.13;;;14.18;;
23567;SDS011;11962;50.838;4.430;2022-11-15T02:08:57;20.58;;;13.52;;
23567;SDS011;11962;50.838;4.430;2022-11-15T02:11:24;21.35;;;13.25;;
23567;SDS011;11962;50.838;4.430;2022-11-15T02:13:50;19.85;;;12.77;;
23567;SDS011;11962;50.838;4.430;2022-11-15T02:16:35;20.80;;;12.88;;
23567;SDS011;11962;50.838;4.430;2022-11-15T02:19:13;22.17;;;13.35;;
23567;SDS011;11962;50.838;4.430;2022-11-15T02:28:01;21.48;;;12.80;;
23567;SDS011;11962;50.838;4.430;2022-11-15T02:30:41;19.25;;;12.68;;
23567;SDS011;11962;50.838;4.430;2022-11-15T02:36:12;15.50;;;11.60;;
23567;SDS011;11962;50.838;4.430;2022-11-15T02:44:53;19.33;;;12.30;;
23567;SDS011;11962;50.838;4.430;2022-11-15T02:47:23;16.27;;;11.63;;
23567;SDS011;11962;50.838;4.430;2022-11-15T02:49:54;20.67;;;12.13;;
23567;SDS011;11962;50.838;4.430;2022-11-15T02:52:24;19.17;;;12.63;;
23567;SDS011;11962;50.838;4.430;2022-11-15T02:55:00;23.10;;;12.50;;
23567;SDS011;11962;50.838;4.430;2022-11-15T03:00:11;17.08;;;11.77;;
23567;SDS011;11962;50.838;4.430;2022-11-15T03:08:32;18.17;;;9.85;;
23567;SDS011;11962;50.838;4.430;2022-11-15T03:11:11;15.77;;;9.68;;
23567;SDS011;11962;50.838;4.430;2022-11-15T03:13:57;15.50;;;9.60;;
23567;SDS011;11962;50.838;4.430;2022-11-15T03:19:32;16.17;;;8.73;;
23567;SDS011;11962;50.838;4.430;2022-11-15T03:22:06;13.48;;;9.25;;
23567;SDS011;11962;50.838;4.430;2022-11-15T03:24:34;15.70;;;8.88;;
23567;SDS011;11962;50.838;4.430;2022-11-15T03:27:03;15.50;;;8.77;;
23567;SDS011;11962;50.838;4.430;2022-11-15T03:29:32;14.07;;;7.68;;
23567;SDS011;11962;50.838;4.430;2022-11-15T03:32:03;13.25;;;7.45;;
23567;SDS011;11962;50.838;4.430;2022-11-15T03:40:04;10.48;;;7.05;;
23567;SDS011;11962;50.838;4.430;2022-11-15T03:42:39;11.85;;;6.82;;
23567;SDS011;11962;50.838;4.430;2022-11-15T03:45:17;10.65;;;6.57;;
23567;SDS011;11962;50.838;4.430;2022-11-15T03:47:49;15.07;;;7.18;;
23567;SDS011;11962;50.838;4.430;2022-11-15T03:50:20;8.85;;;6.13;;
23567;SDS011;11962;50.838;4.430;2022-11-15T03:52:47;13.77;;;6.40;;
23567;SDS011;11962;50.838;4.430;2022-11-15T03:55:18;11.77;;;6.38;;
23567;SDS011;11962;50.838;4.430;2022-11-15T03:57:45;14.48;;;6.30;;
23567;SDS011;11962;50.838;4.430;2022-11-15T04:00:14;9.65;;;5.90;;
23567;SDS011;11962;50.838;4.430;2022-11-15T04:02:40;13.68;;;5.88;;
23567;SDS011;11962;50.838;4.430;2022-11-15T04:05:06;9.68;;;5.38;;
23567;SDS011;11962;50.838;4.430;2022-11-15T04:07:32;9.48;;;5.68;;
23567;SDS011;11962;50.838;4.430;2022-11-15T04:09:57;14.70;;;5.78;;
23567;SDS011;11962;50.838;4.430;2022-11-15T04:12:29;9.10;;;5.68;;
23567;SDS011;11962;50.838;4.430;2022-11-15T04:15:03;10.35;;;5.60;;
23567;SDS011;11962;50.838;4.430;2022-11-15T04:17:32;12.77;;;5.40;;
23567;SDS011;11962;50.838;4.430;2022-11-15T04:20:02;10.45;;;5.38;;
23567;SDS011;11962;50.838;4.430;2022-11-15T04:22:57;12.68;;;5.47;;
23567;SDS011;11962;50.838;4.430;2022-11-15T04:28:09;11.80;;;5.82;;
23567;SDS011;11962;50.838;4.430;2022-11-15T04:30:35;11.40;;;6.18;;
23567;SDS011;11962;50.838;4.430;2022-11-15T04:33:00;7.80;;;5.53;;
23567;SDS011;11962;50.838;4.430;2022-11-15T04:35:26;8.98;;;5.63;;
23567;SDS011;11962;50.838;4.430;2022-11-15T04:37:52;10.85;;;5.60;;
23567;SDS011;11962;50.838;4.430;2022-11-15T04:40:18;8.43;;;5.78;;
23567;SDS011;11962;50.838;4.430;2022-11-15T04:42:44;12.82;;;5.75;;
23567;SDS011;11962;50.838;4.430;2022-11-15T04:45:09;9.82;;;5.85;;
23567;SDS011;11962;50.838;4.430;2022-11-15T04:47:35;10.88;;;6.03;;
23567;SDS011;11962;50.838;4.430;2022-11-15T04:50:03;11.88;;;5.85;;
23567;SDS011;11962;50.838;4.430;2022-11-15T04:52:29;11.55;;;6.20;;
23567;SDS011;11962;50.838;4.430;2022-11-15T04:54:55;9.02;;;6.30;;
23567;SDS011;11962;50.838;4.430;2022-11-15T04:57:21;10.13;;;6.03;;
23567;SDS011;11962;50.838;4.430;2022-11-15T04:59:46;10.32;;;6.13;;
23567;SDS011;11962;50.838;4.430;2022-11-15T05:02:12;11.25;;;5.88;;
23567;SDS011;11962;50.838;4.430;2022-11-15T05:04:37;8.70;;;5.53;;
23567;SDS011;11962;50.838;4.430;2022-11-15T05:07:03;9.30;;;5.40;;
23567;SDS011;11962;50.838;4.430;2022-11-15T05:09:29;8.20;;;5.35;;
23567;SDS011;11962;50.838;4.430;2022-11-15T05:11:55;10.43;;;5.38;;
23567;SDS011;11962;50.838;4.430;2022-11-15T05:14:20;7.10;;;4.68;;
23567;SDS011;11962;50.838;4.430;2022-11-15T05:16:46;7.82;;;4.65;;
23567;SDS011;11962;50.838;4.430;2022-11-15T05:19:12;9.93;;;5.25;;
23567;SDS011;11962;50.838;4.430;2022-11-15T05:21:37;8.82;;;4.93;;
23567;SDS011;11962;50.838;4.430;2022-11-15T05:24:03;9.05;;;5.30;;
23567;SDS011;11962;50.838;4.430;2022-11-15T05:26:29;8.07;;;4.45;;
23567;SDS011;11962;50.838;4.430;2022-11-15T05:28:56;9.13;;;4.60;;
23567;SDS011;11962;50.838;4.430;2022-11-15T05:31:22;12.48;;;4.32;;
23567;SDS011;11962;50.838;4.430;2022-11-15T05:33:49;10.48;;;4.90;;
23567;SDS011;11962;50.838;4.430;2022-11-15T05:36:31;9.77;;;4.47;;
23567;SDS011;11962;50.838;4.430;2022-11-15T05:39:09;13.73;;;3.97;;
23567;SDS011;11962;50.838;4.430;2022-11-15T05:41:45;7.43;;;3.53;;
23567;SDS011;11962;50.838;4.430;2022-11-15T05:44:19;7.47;;;3.97;;
23567;SDS011;11962;50.838;4.430;2022-11-15T05:46:47;7.20;;;3.33;;
23567;SDS011;11962;50.838;4.430;2022-11-15T05:49:16;7.38;;;3.70;;
23567;SDS011;11962;50.838;4.430;2022-11-15T05:51:45;6.90;;;3.90;;
23567;SDS011;11962;50.838;4.430;2022-11-15T05:54:12;12.10;;;3.67;;
23567;SDS011;11962;50.838;4.430;2022-11-15T05:56:38;11.38;;;4.30;;
23567;SDS011;11962;50.838;4.430;2022-11-15T05:59:04;10.60;;;4.47;;
23567;SDS011;11962;50.838;4.430;2022-11-15T06:01:30;11.07;;;4.63;;
23567;SDS011;11962;50.838;4.430;2022-11-15T06:03:56;10.52;;;4.00;;
23567;SDS011;11962;50.838;4.430;2022-11-15T06:06:22;8.73;;;4.35;;
23567;SDS011;11962;50.838;4.430;2022-11-15T06:08:47;9.40;;;4.35;;
23567;SDS011;11962;50.838;4.430;2022-11-15T06:11:13;10.60;;;4.30;;
23567;SDS011;11962;50.838;4.430;2022-11-15T06:13:38;10.38;;;3.90;;
23567;SDS011;11962;50.838;4.430;2022-11-15T06:16:04;8.48;;;4.00;;
23567;SDS011;11962;50.838;4.430;2022-11-15T06:18:33;10.93;;;3.70;;
23567;SDS011;11962;50.838;4.430;2022-11-15T06:20:59;6.93;;;4.18;;
23567;SDS011;11962;50.838;4.430;2022-11-15T06:23:26;9.57;;;4.07;;
23567;SDS011;11962;50.838;4.430;2022-11-15T06:25:52;10.52;;;4.38;;
23567;SDS011;11962;50.838;4.430;2022-11-15T06:28:18;7.15;;;4.07;;
23567;SDS011;11962;50.838;4.430;2022-11-15T06:30:43;8.95;;;4.10;;
23567;SDS011;11962;50.838;4.430;2022-11-15T06:33:09;10.02;;;4.25;;
23567;SDS011;11962;50.838;4.430;2022-11-15T06:35:35;7.15;;;4.32;;
23567;SDS011;11962;50.838;4.430;2022-11-15T06:38:02;11.77;;;4.22;;
23567;SDS011;11962;50.838;4.430;2022-11-15T06:40:29;8.98;;;4.25;;
23567;SDS011;11962;50.838;4.430;2022-11-15T06:42:58;10.15;;;4.53;;
23567;SDS011;11962;50.838;4.430;2022-11-15T06:45:24;8.25;;;4.07;;
23567;SDS011;11962;50.838;4.430;2022-11-15T06:47:50;8.73;;;4.20;;
23567;SDS011;11962;50.838;4.430;2022-11-15T06:50:15;8.57;;;4.20;;
23567;SDS011;11962;50.838;4.430;2022-11-15T06:52:41;7.88;;;4.05;;
23567;SDS011;11962;50.838;4.430;2022-11-15T06:55:07;9.25;;;4.18;;
23567;SDS011;11962;50.838;4.430;2022-11-15T06:57:33;6.40;;;3.40;;
23567;SDS011;11962;50.838;4.430;2022-11-15T06:59:58;11.13;;;4.00;;
23567;SDS011;11962;50.838;4.430;2022-11-15T07:02:24;7.97;;;3.80;;
23567;SDS011;11962;50.838;4.430;2022-11-15T07:04:50;9.45;;;4.25;;
23567;SDS011;11962;50.838;4.430;2022-11-15T07:07:16;7.93;;;4.28;;
23567;SDS011;11962;50.838;4.430;2022-11-15T07:09:41;7.15;;;4.20;;
23567;SDS011;11962;50.838;4.430;2022-11-15T07:12:07;6.50;;;3.95;;
23567;SDS011;11962;50.838;4.430;2022-11-15T07:14:32;8.05;;;3.88;;
23567;SDS011;11962;50.838;4.430;2022-11-15T07:16:58;10.27;;;4.05;;
23567;SDS011;11962;50.838;4.430;2022-11-15T07:19:23;8.73;;;4.28;;
23567;SDS011;11962;50.838;4.430;2022-11-15T07:21:49;8.45;;;4.30;;
23567;SDS011;11962;50.838;4.430;2022-11-15T07:24:14;6.60;;;3.75;;
23567;SDS011;11962;50.838;4.430;2022-11-15T07:26:40;8.55;;;4.18;;
23567;SDS011;11962;50.838;4.430;2022-11-15T07:29:06;10.02;;;3.70;;
23567;SDS011;11962;50.838;4.430;2022-11-15T07:31:31;10.45;;;3.80;;
23567;SDS011;11962;50.838;4.430;2022-11-15T07:33:57;8.57;;;3.50;;
23567;SDS011;11962;50.838;4.430;2022-11-15T07:36:22;6.78;;;3.20;;
23567;SDS011;11962;50.838;4.430;2022-11-15T07:38:48;13.40;;;4.22;;
23567;SDS011;11962;50.838;4.430;2022-11-15T07:41:14;9.43;;;4.03;;
23567;SDS011;11962;50.838;4.430;2022-11-15T07:43:39;9.20;;;3.75;;
23567;SDS011;11962;50.838;4.430;2022-11-15T07:46:06;4.50;;;3.30;;
23567;SDS011;11962;50.838;4.430;2022-11-15T07:48:34;8.55;;;3.90;;
23567;SDS011;11962;50.838;4.430;2022-11-15T07:51:01;9.80;;;4.28;;
23567;SDS011;11962;50.838;4.430;2022-11-15T07:53:27;8.23;;;4.03;;
23567;SDS011;11962;50.838;4.430;2022-11-15T07:55:52;8.98;;;3.53;;
23567;SDS011;11962;50.838;4.430;2022-11-15T07:58:18;5.20;;;3.30;;
23567;SDS011;11962;50.838;4.430;2022-11-15T08:00:44;8.52;;;3.55;;
23567;SDS011;11962;50.838;4.430;2022-11-15T08:03:11;5.18;;;3.08;;
23567;SDS011;11962;50.838;4.430;2022-11-15T08:05:40;11.65;;;3.17;;
23567;SDS011;11962;50.838;4.430;2022-11-15T08:08:07;7.38;;;3.17;;
23567;SDS011;11962;50.838;4.430;2022-11-15T08:10:34;9.45;;;3.28;;
23567;SDS011;11962;50.838;4.430;2022-11-15T08:13:00;7.05;;;2.95;;
23567;SDS011;11962;50.838;4.430;2022-11-15T08:15:36;4.47;;;2.90;;
23567;SDS011;11962;50.838;4.430;2022-11-15T08:18:03;6.43;;;3.08;;
23567;SDS011;11962;50.838;4.430;2022-11-15T08:20:31;7.78;;;2.60;;
23567;SDS011;11962;50.838;4.430;2022-11-15T08:22:57;6.75;;;2.60;;
23567;SDS011;11962;50.838;4.430;2022-11-15T08:25:24;5.60;;;2.90;;
23567;SDS011;11962;50.838;4.430;2022-11-15T08:27:56;7.03;;;2.20;;
23567;SDS011;11962;50.838;4.430;2022-11-15T08:30:24;12.05;;;2.50;;
23567;SDS011;11962;50.838;4.430;2022-11-15T08:32:50;7.03;;;2.20;;
23567;SDS011;11962;50.838;4.430;2022-11-15T08:35:17;3.90;;;2.08;;
23567;SDS011;11962;50.838;4.430;2022-11-15T08:37:43;5.20;;;2.40;;
23567;SDS011;11962;50.838;4.430;2022-11-15T08:40:09;7.43;;;2.63;;
23567;SDS011;11962;50.838;4.430;2022-11-15T08:42:35;6.43;;;2.30;;
23567;SDS011;11962;50.838;4.430;2022-11-15T08:45:01;13.50;;;2.80;;
23567;SDS011;11962;50.838;4.430;2022-11-15T08:47:27;7.80;;;2.03;;
23567;SDS011;11962;50.838;4.430;2022-11-15T08:49:53;5.85;;;2.20;;
23567;SDS011;11962;50.838;4.430;2022-11-15T08:52:19;9.13;;;2.00;;
23567;SDS011;11962;50.838;4.430;2022-11-15T08:54:45;6.18;;;2.28;;
23567;SDS011;11962;50.838;4.430;2022-11-15T08:57:10;5.15;;;1.90;;
23567;SDS011;11962;50.838;4.430;2022-11-15T08:59:36;4.47;;;1.98;;
23567;SDS011;11962;50.838;4.430;2022-11-15T09:02:02;9.30;;;2.17;;
23567;SDS011;11962;50.838;4.430;2022-11-15T09:04:28;6.75;;;1.90;;
23567;SDS011;11962;50.838;4.430;2022-11-15T09:06:54;8.88;;;1.80;;
23567;SDS011;11962;50.838;4.430;2022-11-15T09:09:20;9.10;;;1.80;;
23567;SDS011;11962;50.838;4.430;2022-11-15T09:11:45;5.75;;;1.63;;
23567;SDS011;11962;50.838;4.430;2022-11-15T09:14:11;5.10;;;1.35;;
23567;SDS011;11962;50.838;4.430;2022-11-15T09:16:38;6.20;;;1.52;;
23567;SDS011;11962;50.838;4.430;2022-11-15T09:19:03;5.28;;;1.52;;
23567;SDS011;11962;50.838;4.430;2022-11-15T09:21:29;7.40;;;1.55;;
23567;SDS011;11962;50.838;4.430;2022-11-15T09:23:58;8.93;;;1.55;;
23567;SDS011;11962;50.838;4.430;2022-11-15T09:26:24;7.50;;;1.73;;
23567;SDS011;11962;50.838;4.430;2022-11-15T09:28:50;4.35;;;1.17;;
23567;SDS011;11962;50.838;4.430;2022-11-15T09:31:16;5.93;;;1.30;;
23567;SDS011;11962;50.838;4.430;2022-11-15T09:33:45;5.40;;;1.55;;
23567;SDS011;11962;50.838;4.430;2022-11-15T09:36:11;7.25;;;1.23;;
23567;SDS011;11962;50.838;4.430;2022-11-15T09:38:37;3.20;;;1.10;;
23567;SDS011;11962;50.838;4.430;2022-11-15T09:49:26;3.85;;;1.20;;
23567;SDS011;11962;50.838;4.430;2022-11-15T09:51:54;5.70;;;1.10;;
23567;SDS011;11962;50.838;4.430;2022-11-15T09:56:48;5.53;;;1.15;;
23567;SDS011;11962;50.838;4.430;2022-11-15T09:59:18;4.70;;;1.20;;
23567;SDS011;11962;50.838;4.430;2022-11-15T10:04:56;5.07;;;1.35;;
23567;SDS011;11962;50.838;4.430;2022-11-15T10:10:20;6.50;;;1.23;;
23567;SDS011;11962;50.838;4.430;2022-11-15T10:13:00;7.28;;;1.33;;
23567;SDS011;11962;50.838;4.430;2022-11-15T10:15:26;5.97;;;1.58;;
23567;SDS011;11962;50.838;4.430;2022-11-15T10:20:34;5.90;;;1.30;;
23567;SDS011;11962;50.838;4.430;2022-11-15T10:23:13;6.35;;;1.30;;
23567;SDS011;11962;50.838;4.430;2022-11-15T10:25:41;8.23;;;1.42;;
23567;SDS011;11962;50.838;4.430;2022-11-15T10:30:46;4.30;;;1.25;;
23567;SDS011;11962;50.838;4.430;2022-11-15T10:35:48;5.43;;;1.30;;
23567;SDS011;11962;50.838;4.430;2022-11-15T10:41:16;4.63;;;1.13;;
23567;SDS011;11962;50.838;4.430;2022-11-15T10:43:42;4.75;;;1.10;;
23567;SDS011;11962;50.838;4.430;2022-11-15T10:46:26;4.43;;;1.30;;
23567;SDS011;11962;50.838;4.430;2022-11-15T10:48:52;9.07;;;1.40;;
23567;SDS011;11962;50.838;4.430;2022-11-15T10:51:23;5.22;;;1.25;;
23567;SDS011;11962;50.838;4.430;2022-11-15T10:53:53;5.35;;;1.40;;
23567;SDS011;11962;50.838;4.430;2022-11-15T10:56:21;6.90;;;1.80;;
23567;SDS011;11962;50.838;4.430;2022-11-15T10:58:56;6.70;;;1.30;;
23567;SDS011;11962;50.838;4.430;2022-11-15T11:01:23;6.25;;;1.40;;
23567;SDS011;11962;50.838;4.430;2022-11-15T11:04:04;2.97;;;1.17;;
23567;SDS011;11962;50.838;4.430;2022-11-15T11:11:59;6.85;;;1.35;;
23567;SDS011;11962;50.838;4.430;2022-11-15T11:14:26;5.47;;;1.70;;
23567;SDS011;11962;50.838;4.430;2022-11-15T11:17:09;5.70;;;1.40;;
23567;SDS011;11962;50.838;4.430;2022-11-15T11:19:54;5.40;;;1.67;;
23567;SDS011;11962;50.838;4.430;2022-11-15T11:28:02;5.07;;;1.40;;
23567;SDS011;11962;50.838;4.430;2022-11-15T11:33:24;6.45;;;1.17;;
23567;SDS011;11962;50.838;4.430;2022-11-15T11:36:21;3.33;;;1.20;;
23567;SDS011;11962;50.838;4.430;2022-11-15T11:45:10;4.88;;;1.08;;
23567;SDS011;11962;50.838;4.430;2022-11-15T11:47:48;7.15;;;1.20;;
23567;SDS011;11962;50.838;4.430;2022-11-15T11:50:23;6.65;;;1.40;;
23567;SDS011;11962;50.838;4.430;2022-11-15T11:55:34;5.30;;;1.58;;
23567;SDS011;11962;50.838;4.430;2022-11-15T12:00:39;8.77;;;1.77;;
23567;SDS011;11962;50.838;4.430;2022-11-15T12:03:14;5.57;;;1.90;;
23567;SDS011;11962;50.838;4.430;2022-11-15T12:05:44;6.00;;;1.67;;
23567;SDS011;11962;50.838;4.430;2022-11-15T12:08:27;7.18;;;1.70;;
23567;SDS011;11962;50.838;4.430;2022-11-15T12:11:17;9.05;;;2.22;;
23567;SDS011;11962;50.838;4.430;2022-11-15T12:13:48;7.45;;;1.77;;
23567;SDS011;11962;50.838;4.430;2022-11-15T12:16:22;9.20;;;1.30;;
23567;SDS011;11962;50.838;4.430;2022-11-15T12:18:53;4.25;;;1.27;;
23567;SDS011;11962;50.838;4.430;2022-11-15T12:21:41;5.53;;;1.27;;
23567;SDS011;11962;50.838;4.430;2022-11-15T12:24:28;6.18;;;1.27;;
23567;SDS011;11962;50.838;4.430;2022-11-15T12:27:08;5.53;;;1.35;;
23567;SDS011;11962;50.838;4.430;2022-11-15T12:30:14;4.13;;;1.13;;
23567;SDS011;11962;50.838;4.430;2022-11-15T12:32:56;5.43;;;1.25;;
23567;SDS011;11962;50.838;4.430;2022-11-15T12:35:26;4.25;;;1.20;;
23567;SDS011;11962;50.838;4.430;2022-11-15T12:37:55;12.93;;;1.92;;
23567;SDS011;11962;50.838;4.430;2022-11-15T12:40:25;10.73;;;2.00;;
23567;SDS011;11962;50.838;4.430;2022-11-15T12:42:58;4.20;;;1.65;;
23567;SDS011;11962;50.838;4.430;2022-11-15T12:56:08;1.92;;;1.10;;
23567;SDS011;11962;50.838;4.430;2022-11-15T12:58:43;5.78;;;1.63;;
23567;SDS011;11962;50.838;4.430;2022-11-15T13:07:02;5.10;;;1.50;;
23567;SDS011;11962;50.838;4.430;2022-11-15T13:11:55;5.85;;;1.90;;
23567;SDS011;11962;50.838;4.430;2022-11-15T13:19:53;5.15;;;1.45;;
23567;SDS011;11962;50.838;4.430;2022-11-15T13:22:20;6.45;;;1.75;;
23567;SDS011;11962;50.838;4.430;2022-11-15T13:25:04;16.70;;;3.17;;
23567;SDS011;11962;50.838;4.430;2022-11-15T13:27:48;2.50;;;1.38;;
23567;SDS011;11962;50.838;4.430;2022-11-15T13:30:18;5.57;;;1.50;;
23567;SDS011;11962;50.838;4.430;2022-11-15T13:32:46;3.13;;;1.33;;
23567;SDS011;11962;50.838;4.430;2022-11-15T13:35:28;2.53;;;1.00;;
23567;SDS011;11962;50.838;4.430;2022-11-15T13:37:56;4.28;;;1.17;;
23567;SDS011;11962;50.838;4.430;2022-11-15T13:40:29;6.28;;;1.50;;
23567;SDS011;11962;50.838;4.430;2022-11-15T13:43:02;3.55;;;1.20;;
23567;SDS011;11962;50.838;4.430;2022-11-15T13:45:42;2.45;;;1.00;;
23567;SDS011;11962;50.838;4.430;2022-11-15T13:48:08;2.63;;;1.30;;
23567;SDS011;11962;50.838;4.430;2022-11-15T13:50:36;5.32;;;1.50;;
23567;SDS011;11962;50.838;4.430;2022-11-15T13:53:03;5.93;;;1.30;;
23567;SDS011;11962;50.838;4.430;2022-11-15T13:55:30;8.57;;;1.77;;
23567;SDS011;11962;50.838;4.430;2022-11-15T13:57:58;3.67;;;1.40;;
23567;SDS011;11962;50.838;4.430;2022-11-15T14:06:09;4.88;;;1.55;;
23567;SDS011;11962;50.838;4.430;2022-11-15T14:08:38;3.25;;;1.50;;
23567;SDS011;11962;50.838;4.430;2022-11-15T14:11:09;4.63;;;1.63;;
23567;SDS011;11962;50.838;4.430;2022-11-15T14:16:44;3.95;;;1.50;;
23567;SDS011;11962;50.838;4.430;2022-11-15T14:19:12;1.95;;;1.20;;
23567;SDS011;11962;50.838;4.430;2022-11-15T14:22:07;2.72;;;1.40;;
23567;SDS011;11962;50.838;4.430;2022-11-15T14:24:41;3.03;;;1.38;;
23567;SDS011;11962;50.838;4.430;2022-11-15T14:29:54;7.32;;;1.58;;
23567;SDS011;11962;50.838;4.430;2022-11-15T14:35:09;3.85;;;1.80;;
23567;SDS011;11962;50.838;4.430;2022-11-15T14:37:43;6.93;;;2.20;;
23567;SDS011;11962;50.838;4.430;2022-11-15T14:40:12;2.10;;;1.50;;
23567;SDS011;11962;50.838;4.430;2022-11-15T14:42:39;5.53;;;1.80;;
23567;SDS011;11962;50.838;4.430;2022-11-15T14:45:11;5.57;;;1.80;;
23567;SDS011;11962;50.838;4.430;2022-11-15T14:47:42;3.25;;;1.60;;
23567;SDS011;11962;50.838;4.430;2022-11-15T14:50:11;4.13;;;1.67;;
23567;SDS011;11962;50.838;4.430;2022-11-15T14:52:42;2.58;;;1.27;;
23567;SDS011;11962;50.838;4.430;2022-11-15T14:55:29;2.33;;;1.33;;
23567;SDS011;11962;50.838;4.430;2022-11-15T14:58:00;5.47;;;1.95;;
23567;SDS011;11962;50.838;4.430;2022-11-15T15:00:28;4.38;;;1.75;;
23567;SDS011;11962;50.838;4.430;2022-11-15T15:02:55;4.85;;;2.80;;
23567;SDS011;11962;50.838;4.430;2022-11-15T15:07:48;3.10;;;1.65;;
23567;SDS011;11962;50.838;4.430;2022-11-15T15:10:14;5.82;;;1.60;;
23567;SDS011;11962;50.838;4.430;2022-11-15T15:12:41;5.57;;;1.88;;
23567;SDS011;11962;50.838;4.430;2022-11-15T15:15:40;3.65;;;1.58;;
23567;SDS011;11962;50.838;4.430;2022-11-15T15:18:00;5.45;;;1.73;;
23567;SDS011;11962;50.838;4.430;2022-11-15T15:20:26;2.92;;;1.70;;
23567;SDS011;11962;50.838;4.430;2022-11-15T15:22:53;4.20;;;1.70;;
23567;SDS011;11962;50.838;4.430;2022-11-15T15:25:22;3.30;;;1.40;;
23567;SDS011;11962;50.838;4.430;2022-11-15T15:27:53;3.30;;;1.88;;
23567;SDS011;11962;50.838;4.430;2022-11-15T15:30:20;4.57;;;2.00;;
23567;SDS011;11962;50.838;4.430;2022-11-15T15:32:48;5.47;;;2.10;;
23567;SDS011;11962;50.838;4.430;2022-11-15T15:35:15;4.38;;;1.67;;
23567;SDS011;11962;50.838;4.430;2022-11-15T15:37:42;3.25;;;1.85;;
23567;SDS011;11962;50.838;4.430;2022-11-15T15:40:16;5.68;;;1.90;;
23567;SDS011;11962;50.838;4.430;2022-11-15T15:42:47;3.63;;;1.92;;
23567;SDS011;11962;50.838;4.430;2022-11-15T15:45:16;16.02;;;2.17;;
23567;SDS011;11962;50.838;4.430;2022-11-15T15:47:43;3.30;;;1.85;;
23567;SDS011;11962;50.838;4.430;2022-11-15T15:52:56;4.35;;;1.80;;
23567;SDS011;11962;50.838;4.430;2022-11-15T15:55:23;2.95;;;1.80;;
23567;SDS011;11962;50.838;4.430;2022-11-15T15:57:49;3.88;;;1.98;;
23567;SDS011;11962;50.838;4.430;2022-11-15T16:00:15;3.47;;;1.85;;
23567;SDS011;11962;50.838;4.430;2022-11-15T16:02:42;3.78;;;2.17;;
23567;SDS011;11962;50.838;4.430;2022-11-15T16:05:08;4.53;;;1.98;;
23567;SDS011;11962;50.838;4.430;2022-11-15T16:07:35;4.55;;;1.88;;
23567;SDS011;11962;50.838;4.430;2022-11-15T16:10:01;3.03;;;2.05;;
23567;SDS011;11962;50.838;4.430;2022-11-15T16:12:31;3.85;;;2.13;;
23567;SDS011;11962;50.838;4.430;2022-11-15T16:14:58;2.67;;;1.98;;
23567;SDS011;11962;50.838;4.430;2022-11-15T16:17:26;2.97;;;2.42;;
23567;SDS011;11962;50.838;4.430;2022-11-15T16:19:55;4.20;;;2.30;;
23567;SDS011;11962;50.838;4.430;2022-11-15T16:22:21;6.13;;;1.90;;
23567;SDS011;11962;50.838;4.430;2022-11-15T16:24:46;5.10;;;2.83;;
23567;SDS011;11962;50.838;4.430;2022-11-15T16:27:19;5.20;;;2.67;;
23567;SDS011;11962;50.838;4.430;2022-11-15T16:29:46;4.97;;;2.47;;
23567;SDS011;11962;50.838;4.430;2022-11-15T16:32:15;3.85;;;2.38;;
23567;SDS011;11962;50.838;4.430;2022-11-15T16:34:40;5.43;;;2.53;;
23567;SDS011;11962;50.838;4.430;2022-11-15T16:37:09;4.68;;;2.60;;
23567;SDS011;11962;50.838;4.430;2022-11-15T16:39:48;3.97;;;2.58;;
23567;SDS011;11962;50.838;4.430;2022-11-15T16:42:14;4.53;;;2.92;;
23567;SDS011;11962;50.838;4.430;2022-11-15T16:44:40;4.30;;;2.60;;
23567;SDS011;11962;50.838;4.430;2022-11-15T16:47:38;4.32;;;2.80;;
23567;SDS011;11962;50.838;4.430;2022-11-15T16:49:57;5.07;;;2.60;;
23567;SDS011;11962;50.838;4.430;2022-11-15T16:52:23;3.78;;;3.00;;
23567;SDS011;11962;50.838;4.430;2022-11-15T16:54:48;6.25;;;2.60;;
23567;SDS011;11962;50.838;4.430;2022-11-15T16:57:14;4.25;;;2.65;;
23567;SDS011;11962;50.838;4.430;2022-11-15T16:59:40;7.40;;;2.70;;
23567;SDS011;11962;50.838;4.430;2022-11-15T17:02:12;4.30;;;2.55;;
23567;SDS011;11962;50.838;4.430;2022-11-15T17:04:38;3.88;;;2.30;;